sensor_id;sensor_type;location;lat;lon;timestamp;temperature;humidity
16491;DHT22;8356;51.214;3.270;2023-01-13T00:00:55;282.10;2278.40
16491;DHT22;8356;51.214;3.270;2023-01-13T00:03:21;282.10;2278.40
16491;DHT22;8356;51.214;3.270;2023-01-13T00:05:47;282.10;2278.40
16491;DHT22;8356;51.214;3.270;2023-01-13T00:08:12;282.00;2278.40
16491;DHT22;8356;51.214;3.270;2023-01-13T00:10:38;282.00;2278.40
16491;DHT22;8356;51.214;3.270;2023-01-13T00:13:04;282.10;2278.40
16491;DHT22;8356;51.214;3.270;2023-01-13T00:15:30;282.10;2278.40
16491;DHT22;8356;51.214;3.270;2023-01-13T00:17:56;282.10;2278.40
16491;DHT22;8356;51.214;3.270;2023-01-13T00:20:22;282.10;2278.40
16491;DHT22;8356;51.214;3.270;2023-01-13T00:22:47;282.10;2278.40
16491;DHT22;8356;51.214;3.270;2023-01-13T00:25:13;282.10;2278.40
16491;DHT22;8356;51.214;3.270;2023-01-13T00:27:39;282.10;2278.40
16491;DHT22;8356;51.214;3.270;2023-01-13T00:30:06;282.10;2278.40
16491;DHT22;8356;51.214;3.270;2023-01-13T00:32:32;282.00;2278.40
16491;DHT22;8356;51.214;3.270;2023-01-13T00:34:57;282.00;2278.40
16491;DHT22;8356;51.214;3.270;2023-01-13T00:37:23;281.90;2278.40
16491;DHT22;8356;51.214;3.270;2023-01-13T00:39:52;308.00;2304.00
16491;DHT22;8356;51.214;3.270;2023-01-13T00:42:18;282.00;2278.40
16491;DHT22;8356;51.214;3.270;2023-01-13T00:45:03;282.00;2278.40
16491;DHT22;8356;51.214;3.270;2023-01-13T00:47:29;281.80;2278.40
16491;DHT22;8356;51.214;3.270;2023-01-13T00:49:55;281.80;2278.40
16491;DHT22;8356;51.214;3.270;2023-01-13T00:52:21;281.80;2278.40
16491;DHT22;8356;51.214;3.270;2023-01-13T00:54:47;281.80;2278.40
16491;DHT22;8356;51.214;3.270;2023-01-13T00:57:13;281.80;2278.40
16491;DHT22;8356;51.214;3.270;2023-01-13T00:59:40;281.80;2278.40
16491;DHT22;8356;51.214;3.270;2023-01-13T01:02:05;281.80;2278.40
16491;DHT22;8356;51.214;3.270;2023-01-13T01:04:31;281.70;2278.40
16491;DHT22;8356;51.214;3.270;2023-01-13T01:06:57;281.70;2278.40
16491;DHT22;8356;51.214;3.270;2023-01-13T01:09:23;281.70;2278.40
16491;DHT22;8356;51.214;3.270;2023-01-13T01:11:48;281.70;2278.40
16491;DHT22;8356;51.214;3.270;2023-01-13T01:14:14;281.70;2278.40
16491;DHT22;8356;51.214;3.270;2023-01-13T01:16:40;281.70;2278.40
16491;DHT22;8356;51.214;3.270;2023-01-13T01:19:07;281.80;2278.40
16491;DHT22;8356;51.214;3.270;2023-01-13T01:21:33;281.80;2278.40
16491;DHT22;8356;51.214;3.270;2023-01-13T01:24:00;281.80;2278.40
16491;DHT22;8356;51.214;3.270;2023-01-13T01:26:27;281.80;2278.40
16491;DHT22;8356;51.214;3.270;2023-01-13T01:28:54;281.80;2278.40
16491;DHT22;8356;51.214;3.270;2023-01-13T01:31:26;281.80;2278.40
16491;DHT22;8356;51.214;3.270;2023-01-13T01:33:52;281.80;2278.40
16491;DHT22;8356;51.214;3.270;2023-01-13T01:36:20;281.90;2278.40
16491;DHT22;8356;51.214;3.270;2023-01-13T01:38:48;282.00;2278.40
16491;DHT22;8356;51.214;3.270;2023-01-13T01:41:20;282.00;2278.40
16491;DHT22;8356;51.214;3.270;2023-01-13T01:49:28;282.00;2278.40
16491;DHT22;8356;51.214;3.270;2023-01-13T01:56:58;282.00;2278.40
16491;DHT22;8356;51.214;3.270;2023-01-13T01:59:26;282.00;2278.40
16491;DHT22;8356;51.214;3.270;2023-01-13T02:01:52;281.90;2278.40
16491;DHT22;8356;51.214;3.270;2023-01-13T02:04:28;281.80;2278.40
16491;DHT22;8356;51.214;3.270;2023-01-13T02:06:55;281.80;2278.40
16491;DHT22;8356;51.214;3.270;2023-01-13T02:09:23;281.70;2278.40
16491;DHT22;8356;51.214;3.270;2023-01-13T02:11:49;281.60;2278.40
16491;DHT22;8356;51.214;3.270;2023-01-13T02:14:34;281.60;2278.40
16491;DHT22;8356;51.214;3.270;2023-01-13T02:20:27;281.60;2278.40
16491;DHT22;8356;51.214;3.270;2023-01-13T02:31:34;256.80;2252.80
16491;DHT22;8356;51.214;3.270;2023-01-13T02:34:39;256.80;2252.80
16491;DHT22;8356;51.214;3.270;2023-01-13T02:39:53;256.70;2252.80
16491;DHT22;8356;51.214;3.270;2023-01-13T02:42:28;256.70;2252.80
16491;DHT22;8356;51.214;3.270;2023-01-13T02:45:31;256.80;2252.80
16491;DHT22;8356;51.214;3.270;2023-01-13T02:47:58;256.80;2252.80
16491;DHT22;8356;51.214;3.270;2023-01-13T02:50:36;256.70;2252.80
16491;DHT22;8356;51.214;3.270;2023-01-13T02:53:16;256.70;2252.80
16491;DHT22;8356;51.214;3.270;2023-01-13T02:55:47;256.70;2252.80
16491;DHT22;8356;51.214;3.270;2023-01-13T02:58:16;256.70;2252.80
16491;DHT22;8356;51.214;3.270;2023-01-13T03:00:44;256.70;2252.80
16491;DHT22;8356;51.214;3.270;2023-01-13T03:03:10;256.60;2252.80
16491;DHT22;8356;51.214;3.270;2023-01-13T03:05:36;256.70;2252.80
16491;DHT22;8356;51.214;3.270;2023-01-13T03:11:15;256.60;2252.80
16491;DHT22;8356;51.214;3.270;2023-01-13T03:16:43;256.80;2252.80
16491;DHT22;8356;51.214;3.270;2023-01-13T03:24:41;256.90;2252.80
16491;DHT22;8356;51.214;3.270;2023-01-13T03:27:31;256.90;2252.80
16491;DHT22;8356;51.214;3.270;2023-01-13T03:30:14;256.80;2252.80
16491;DHT22;8356;51.214;3.270;2023-01-13T03:32:45;256.80;2252.80
16491;DHT22;8356;51.214;3.270;2023-01-13T03:35:22;256.90;2252.80
16491;DHT22;8356;51.214;3.270;2023-01-13T03:37:59;256.90;2252.80
16491;DHT22;8356;51.214;3.270;2023-01-13T03:40:31;256.90;2252.80
16491;DHT22;8356;51.214;3.270;2023-01-13T03:43:05;256.90;2252.80
16491;DHT22;8356;51.214;3.270;2023-01-13T03:45:54;256.90;2252.80
16491;DHT22;8356;51.214;3.270;2023-01-13T03:48:24;256.80;2252.80
16491;DHT22;8356;51.214;3.270;2023-01-13T03:50:52;256.80;2252.80
16491;DHT22;8356;51.214;3.270;2023-01-13T03:53:29;256.90;2252.80
16491;DHT22;8356;51.214;3.270;2023-01-13T03:56:01;256.80;2252.80
16491;DHT22;8356;51.214;3.270;2023-01-13T03:58:32;256.80;2252.80
16491;DHT22;8356;51.214;3.270;2023-01-13T04:01:20;256.80;2252.80
16491;DHT22;8356;51.214;3.270;2023-01-13T04:03:51;256.80;2252.80
16491;DHT22;8356;51.214;3.270;2023-01-13T04:09:06;256.80;2252.80
16491;DHT22;8356;51.214;3.270;2023-01-13T04:11:41;256.80;2252.80
16491;DHT22;8356;51.214;3.270;2023-01-13T04:14:09;256.80;2252.80
16491;DHT22;8356;51.214;3.270;2023-01-13T04:16:36;256.80;2252.80
16491;DHT22;8356;51.214;3.270;2023-01-13T04:19:02;256.80;2252.80
16491;DHT22;8356;51.214;3.270;2023-01-13T04:21:29;256.80;2252.80
16491;DHT22;8356;51.214;3.270;2023-01-13T04:23:55;256.80;2252.80
16491;DHT22;8356;51.214;3.270;2023-01-13T04:26:20;256.80;2252.80
16491;DHT22;8356;51.214;3.270;2023-01-13T04:28:47;256.80;2252.80
16491;DHT22;8356;51.214;3.270;2023-01-13T04:31:13;256.80;2252.80
16491;DHT22;8356;51.214;3.270;2023-01-13T04:33:39;256.80;2252.80
16491;DHT22;8356;51.214;3.270;2023-01-13T04:36:05;256.80;2252.80
16491;DHT22;8356;51.214;3.270;2023-01-13T04:38:31;256.70;2252.80
16491;DHT22;8356;51.214;3.270;2023-01-13T04:40:57;256.80;2252.80
16491;DHT22;8356;51.214;3.270;2023-01-13T04:43:22;256.70;2252.80
16491;DHT22;8356;51.214;3.270;2023-01-13T04:45:48;256.70;2252.80
16491;DHT22;8356;51.214;3.270;2023-01-13T04:48:14;256.70;2252.80
16491;DHT22;8356;51.214;3.270;2023-01-13T04:50:39;256.70;2252.80
16491;DHT22;8356;51.214;3.270;2023-01-13T04:53:06;256.70;2252.80
16491;DHT22;8356;51.214;3.270;2023-01-13T04:55:31;256.80;2252.80
16491;DHT22;8356;51.214;3.270;2023-01-13T04:58:05;256.70;2252.80
16491;DHT22;8356;51.214;3.270;2023-01-13T05:00:31;256.70;2252.80
16491;DHT22;8356;51.214;3.270;2023-01-13T05:02:56;256.70;2252.80
16491;DHT22;8356;51.214;3.270;2023-01-13T05:05:22;256.60;2252.80
16491;DHT22;8356;51.214;3.270;2023-01-13T05:07:48;256.70;2252.80
16491;DHT22;8356;51.214;3.270;2023-01-13T05:10:14;256.70;2252.80
16491;DHT22;8356;51.214;3.270;2023-01-13T05:12:40;256.70;2252.80
16491;DHT22;8356;51.214;3.270;2023-01-13T05:15:24;256.70;2252.80
16491;DHT22;8356;51.214;3.270;2023-01-13T05:18:08;256.70;2252.80
16491;DHT22;8356;51.214;3.270;2023-01-13T05:20:34;256.70;2252.80
16491;DHT22;8356;51.214;3.270;2023-01-13T05:23:00;256.70;2252.80
16491;DHT22;8356;51.214;3.270;2023-01-13T05:25:46;256.80;2252.80
16491;DHT22;8356;51.214;3.270;2023-01-13T05:28:12;256.70;2252.80
16491;DHT22;8356;51.214;3.270;2023-01-13T05:30:42;256.70;2252.80
16491;DHT22;8356;51.214;3.270;2023-01-13T05:33:09;256.70;2252.80
16491;DHT22;8356;51.214;3.270;2023-01-13T05:35:44;256.60;2252.80
16491;DHT22;8356;51.214;3.270;2023-01-13T05:38:11;256.60;2252.80
16491;DHT22;8356;51.214;3.270;2023-01-13T05:40:37;256.60;2252.80
16491;DHT22;8356;51.214;3.270;2023-01-13T05:43:22;256.60;2252.80
16491;DHT22;8356;51.214;3.270;2023-01-13T05:48:17;256.70;2252.80
16491;DHT22;8356;51.214;3.270;2023-01-13T05:50:44;256.70;2252.80
16491;DHT22;8356;51.214;3.270;2023-01-13T05:53:10;256.60;2252.80
16491;DHT22;8356;51.214;3.270;2023-01-13T05:55:40;256.70;2252.80
16491;DHT22;8356;51.214;3.270;2023-01-13T05:58:10;256.60;2252.80
16491;DHT22;8356;51.214;3.270;2023-01-13T06:00:37;256.70;2252.80
16491;DHT22;8356;51.214;3.270;2023-01-13T06:03:04;256.60;2252.80
16491;DHT22;8356;51.214;3.270;2023-01-13T06:05:30;256.70;2252.80
16491;DHT22;8356;51.214;3.270;2023-01-13T06:08:00;256.70;2252.80
16491;DHT22;8356;51.214;3.270;2023-01-13T06:10:27;256.70;2252.80
16491;DHT22;8356;51.214;3.270;2023-01-13T06:12:53;256.70;2252.80
16491;DHT22;8356;51.214;3.270;2023-01-13T06:15:20;256.60;2252.80
16491;DHT22;8356;51.214;3.270;2023-01-13T06:17:46;256.80;2252.80
16491;DHT22;8356;51.214;3.270;2023-01-13T06:20:13;281.70;2278.40
16491;DHT22;8356;51.214;3.270;2023-01-13T06:22:46;256.60;2252.80
16491;DHT22;8356;51.214;3.270;2023-01-13T06:27:50;256.70;2252.80
16491;DHT22;8356;51.214;3.270;2023-01-13T06:30:16;256.80;2252.80
16491;DHT22;8356;51.214;3.270;2023-01-13T06:32:45;256.70;2252.80
16491;DHT22;8356;51.214;3.270;2023-01-13T06:35:14;256.80;2252.80
16491;DHT22;8356;51.214;3.270;2023-01-13T06:37:43;256.70;2252.80
16491;DHT22;8356;51.214;3.270;2023-01-13T06:40:11;256.80;2252.80
16491;DHT22;8356;51.214;3.270;2023-01-13T06:42:38;256.80;2252.80
16491;DHT22;8356;51.214;3.270;2023-01-13T06:45:24;256.80;2252.80
16491;DHT22;8356;51.214;3.270;2023-01-13T06:47:51;256.80;2252.80
16491;DHT22;8356;51.214;3.270;2023-01-13T06:50:19;256.80;2252.80
16491;DHT22;8356;51.214;3.270;2023-01-13T06:52:45;256.80;2252.80
16491;DHT22;8356;51.214;3.270;2023-01-13T06:55:11;256.80;2252.80
16491;DHT22;8356;51.214;3.270;2023-01-13T06:58:06;256.80;2252.80
16491;DHT22;8356;51.214;3.270;2023-01-13T07:00:32;256.80;2252.80
16491;DHT22;8356;51.214;3.270;2023-01-13T07:03:12;256.80;2252.80
16491;DHT22;8356;51.214;3.270;2023-01-13T07:05:39;256.80;2252.80
16491;DHT22;8356;51.214;3.270;2023-01-13T07:08:06;256.70;2252.80
16491;DHT22;8356;51.214;3.270;2023-01-13T07:10:32;256.70;2252.80
16491;DHT22;8356;51.214;3.270;2023-01-13T07:13:00;256.90;2252.80
16491;DHT22;8356;51.214;3.270;2023-01-13T07:15:55;256.70;2252.80
16491;DHT22;8356;51.214;3.270;2023-01-13T07:18:22;256.80;2252.80
16491;DHT22;8356;51.214;3.270;2023-01-13T07:20:59;256.80;2252.80
16491;DHT22;8356;51.214;3.270;2023-01-13T07:23:30;256.80;2252.80
16491;DHT22;8356;51.214;3.270;2023-01-13T07:25:56;256.90;2252.80
16491;DHT22;8356;51.214;3.270;2023-01-13T07:28:23;256.90;2252.80
16491;DHT22;8356;51.214;3.270;2023-01-13T07:30:49;256.90;2252.80
16491;DHT22;8356;51.214;3.270;2023-01-13T07:33:15;256.80;2252.80
16491;DHT22;8356;51.214;3.270;2023-01-13T07:35:46;256.80;2252.80
16491;DHT22;8356;51.214;3.270;2023-01-13T07:38:13;256.90;2252.80
16491;DHT22;8356;51.214;3.270;2023-01-13T07:40:39;256.90;2252.80
16491;DHT22;8356;51.214;3.270;2023-01-13T07:43:05;256.90;2252.80
16491;DHT22;8356;51.214;3.270;2023-01-13T07:45:55;281.60;2278.40
16491;DHT22;8356;51.214;3.270;2023-01-13T07:48:21;281.60;2278.40
16491;DHT22;8356;51.214;3.270;2023-01-13T07:50:47;281.60;2278.40
16491;DHT22;8356;51.214;3.270;2023-01-13T07:53:12;281.60;2278.40
16491;DHT22;8356;51.214;3.270;2023-01-13T07:55:42;281.60;2278.40
16491;DHT22;8356;51.214;3.270;2023-01-13T07:58:09;281.70;2278.40
16491;DHT22;8356;51.214;3.270;2023-01-13T08:00:36;281.90;2278.40
16491;DHT22;8356;51.214;3.270;2023-01-13T08:03:02;281.60;2278.40
16491;DHT22;8356;51.214;3.270;2023-01-13T08:05:27;281.60;2278.40
16491;DHT22;8356;51.214;3.270;2023-01-13T08:07:53;281.60;2278.40
16491;DHT22;8356;51.214;3.270;2023-01-13T08:10:19;281.60;2278.40
16491;DHT22;8356;51.214;3.270;2023-01-13T08:12:44;281.60;2278.40
16491;DHT22;8356;51.214;3.270;2023-01-13T08:15:30;281.60;2278.40
16491;DHT22;8356;51.214;3.270;2023-01-13T08:17:56;281.70;2278.40
16491;DHT22;8356;51.214;3.270;2023-01-13T08:20:24;281.70;2278.40
16491;DHT22;8356;51.214;3.270;2023-01-13T08:22:50;281.70;2278.40
16491;DHT22;8356;51.214;3.270;2023-01-13T08:25:15;281.70;2278.40
16491;DHT22;8356;51.214;3.270;2023-01-13T08:27:41;281.70;2278.40
16491;DHT22;8356;51.214;3.270;2023-01-13T08:30:08;281.70;2278.40
16491;DHT22;8356;51.214;3.270;2023-01-13T08:32:33;281.80;2278.40
16491;DHT22;8356;51.214;3.270;2023-01-13T08:34:59;281.90;2278.40
16491;DHT22;8356;51.214;3.270;2023-01-13T08:37:25;282.00;2278.40
16491;DHT22;8356;51.214;3.270;2023-01-13T08:39:51;282.00;2278.40
16491;DHT22;8356;51.214;3.270;2023-01-13T08:42:16;282.00;2278.40
16491;DHT22;8356;51.214;3.270;2023-01-13T08:44:42;282.00;2278.40
16491;DHT22;8356;51.214;3.270;2023-01-13T08:47:07;282.10;2278.40
16491;DHT22;8356;51.214;3.270;2023-01-13T08:49:33;282.10;2278.40
16491;DHT22;8356;51.214;3.270;2023-01-13T08:51:59;282.30;2278.40
16491;DHT22;8356;51.214;3.270;2023-01-13T08:54:25;282.40;2278.40
16491;DHT22;8356;51.214;3.270;2023-01-13T08:56:50;282.50;2278.40
16491;DHT22;8356;51.214;3.270;2023-01-13T08:59:18;307.20;2304.00
16491;DHT22;8356;51.214;3.270;2023-01-13T09:01:44;307.40;2304.00
16491;DHT22;8356;51.214;3.270;2023-01-13T09:04:18;307.40;2304.00
16491;DHT22;8356;51.214;3.270;2023-01-13T09:06:44;307.50;2304.00
16491;DHT22;8356;51.214;3.270;2023-01-13T09:09:10;307.50;2304.00
16491;DHT22;8356;51.214;3.270;2023-01-13T09:11:39;307.50;2304.00
16491;DHT22;8356;51.214;3.270;2023-01-13T09:14:26;307.40;2304.00
16491;DHT22;8356;51.214;3.270;2023-01-13T09:16:52;307.40;2304.00
16491;DHT22;8356;51.214;3.270;2023-01-13T09:19:17;307.30;2304.00
16491;DHT22;8356;51.214;3.270;2023-01-13T09:21:43;307.20;2304.00
16491;DHT22;8356;51.214;3.270;2023-01-13T09:24:09;307.20;2304.00
16491;DHT22;8356;51.214;3.270;2023-01-13T09:26:36;307.20;2304.00
16491;DHT22;8356;51.214;3.270;2023-01-13T09:29:02;307.20;2304.00
16491;DHT22;8356;51.214;3.270;2023-01-13T09:31:28;307.20;2304.00
16491;DHT22;8356;51.214;3.270;2023-01-13T09:33:54;307.20;2304.00
16491;DHT22;8356;51.214;3.270;2023-01-13T09:36:38;307.20;2304.00
16491;DHT22;8356;51.214;3.270;2023-01-13T09:39:04;307.20;2304.00
16491;DHT22;8356;51.214;3.270;2023-01-13T09:41:31;282.50;2278.40
16491;DHT22;8356;51.214;3.270;2023-01-13T09:47:10;282.50;2278.40
16491;DHT22;8356;51.214;3.270;2023-01-13T09:49:39;282.50;2278.40
16491;DHT22;8356;51.214;3.270;2023-01-13T09:57:14;307.20;2304.00
16491;DHT22;8356;51.214;3.270;2023-01-13T09:59:41;307.20;2304.00
16491;DHT22;8356;51.214;3.270;2023-01-13T10:02:36;307.20;2304.00
16491;DHT22;8356;51.214;3.270;2023-01-13T10:05:13;307.30;2304.00
16491;DHT22;8356;51.214;3.270;2023-01-13T10:07:51;307.30;2304.00
16491;DHT22;8356;51.214;3.270;2023-01-13T10:13:18;307.50;2304.00
16491;DHT22;8356;51.214;3.270;2023-01-13T10:15:54;307.60;2304.00
16491;DHT22;8356;51.214;3.270;2023-01-13T10:18:33;307.70;2304.00
16491;DHT22;8356;51.214;3.270;2023-01-13T10:21:21;307.70;2304.00
16491;DHT22;8356;51.214;3.270;2023-01-13T10:23:53;307.70;2304.00
16491;DHT22;8356;51.214;3.270;2023-01-13T10:26:28;307.80;2304.00
16491;DHT22;8356;51.214;3.270;2023-01-13T10:28:58;307.80;2304.00
16491;DHT22;8356;51.214;3.270;2023-01-13T10:31:25;307.80;2304.00
16491;DHT22;8356;51.214;3.270;2023-01-13T10:34:01;307.80;2304.00
16491;DHT22;8356;51.214;3.270;2023-01-13T10:36:28;307.80;2304.00
16491;DHT22;8356;51.214;3.270;2023-01-13T10:39:15;307.90;2304.00
16491;DHT22;8356;51.214;3.270;2023-01-13T10:41:41;307.80;2304.00
16491;DHT22;8356;51.214;3.270;2023-01-13T10:44:16;307.90;2304.00
16491;DHT22;8356;51.214;3.270;2023-01-13T10:46:52;307.90;2304.00
16491;DHT22;8356;51.214;3.270;2023-01-13T10:49:29;307.90;2304.00
16491;DHT22;8356;51.214;3.270;2023-01-13T10:51:57;307.90;2304.00
16491;DHT22;8356;51.214;3.270;2023-01-13T10:54:24;333.00;2329.60
16491;DHT22;8356;51.214;3.270;2023-01-13T10:57:19;307.90;2304.00
16491;DHT22;8356;51.214;3.270;2023-01-13T10:59:46;308.00;2304.00
16491;DHT22;8356;51.214;3.270;2023-01-13T11:02:33;308.00;2304.00
16491;DHT22;8356;51.214;3.270;2023-01-13T11:05:19;308.10;2304.00
16491;DHT22;8356;51.214;3.270;2023-01-13T11:07:47;308.10;2304.00
16491;DHT22;8356;51.214;3.270;2023-01-13T11:10:29;307.90;2304.00
16491;DHT22;8356;51.214;3.270;2023-01-13T11:19:09;307.90;2304.00
16491;DHT22;8356;51.214;3.270;2023-01-13T11:27:49;307.90;2304.00
16491;DHT22;8356;51.214;3.270;2023-01-13T11:35:44;307.90;2304.00
16491;DHT22;8356;51.214;3.270;2023-01-13T11:41:11;307.90;2304.00
16491;DHT22;8356;51.214;3.270;2023-01-13T11:46:13;307.90;2304.00
16491;DHT22;8356;51.214;3.270;2023-01-13T11:48:41;307.90;2304.00
16491;DHT22;8356;51.214;3.270;2023-01-13T12:05:15;307.90;2304.00
16491;DHT22;8356;51.214;3.270;2023-01-13T12:13:14;307.80;2304.00
16491;DHT22;8356;51.214;3.270;2023-01-13T12:22:01;307.70;2304.00
16491;DHT22;8356;51.214;3.270;2023-01-13T12:24:44;307.70;2304.00
16491;DHT22;8356;51.214;3.270;2023-01-13T12:27:31;307.70;2304.00
16491;DHT22;8356;51.214;3.270;2023-01-13T12:30:01;307.70;2304.00
16491;DHT22;8356;51.214;3.270;2023-01-13T12:32:37;307.70;2304.00
16491;DHT22;8356;51.214;3.270;2023-01-13T12:35:19;307.80;2304.00
16491;DHT22;8356;51.214;3.270;2023-01-13T12:38:27;307.80;2304.00
16491;DHT22;8356;51.214;3.270;2023-01-13T12:41:09;307.90;2304.00
16491;DHT22;8356;51.214;3.270;2023-01-13T12:43:45;307.90;2304.00
16491;DHT22;8356;51.214;3.270;2023-01-13T12:51:32;332.80;2329.60
16491;DHT22;8356;51.214;3.270;2023-01-13T12:54:00;333.00;2329.60
16491;DHT22;8356;51.214;3.270;2023-01-13T13:01:42;333.30;2329.60
16491;DHT22;8356;51.214;3.270;2023-01-13T13:04:58;333.30;2329.60
16491;DHT22;8356;51.214;3.270;2023-01-13T13:07:11;333.20;2329.60
16491;DHT22;8356;51.214;3.270;2023-01-13T13:09:43;333.20;2329.60
16491;DHT22;8356;51.214;3.270;2023-01-13T13:15:25;333.10;2329.60
16491;DHT22;8356;51.214;3.270;2023-01-13T13:21:06;333.00;2329.60
16491;DHT22;8356;51.214;3.270;2023-01-13T13:39:49;333.00;2329.60
16491;DHT22;8356;51.214;3.270;2023-01-13T13:42:54;333.00;2329.60
16491;DHT22;8356;51.214;3.270;2023-01-13T13:45:49;333.10;2329.60
16491;DHT22;8356;51.214;3.270;2023-01-13T13:48:33;333.10;2329.60
16491;DHT22;8356;51.214;3.270;2023-01-13T13:51:01;333.10;2329.60
16491;DHT22;8356;51.214;3.270;2023-01-13T13:53:32;333.10;2329.60
16491;DHT22;8356;51.214;3.270;2023-01-13T13:55:59;333.10;2329.60
16491;DHT22;8356;51.214;3.270;2023-01-13T13:58:30;333.10;2329.60
16491;DHT22;8356;51.214;3.270;2023-01-13T14:00:58;333.00;2329.60
16491;DHT22;8356;51.214;3.270;2023-01-13T14:03:34;332.90;2329.60
16491;DHT22;8356;51.214;3.270;2023-01-13T14:06:02;332.80;2329.60
16491;DHT22;8356;51.214;3.270;2023-01-13T14:08:33;332.80;2329.60
16491;DHT22;8356;51.214;3.270;2023-01-13T14:10:59;308.10;2304.00
16491;DHT22;8356;51.214;3.270;2023-01-13T14:13:27;308.10;2304.00
16491;DHT22;8356;51.214;3.270;2023-01-13T14:16:13;308.10;2304.00
16491;DHT22;8356;51.214;3.270;2023-01-13T14:18:44;308.10;2304.00
16491;DHT22;8356;51.214;3.270;2023-01-13T14:21:17;308.00;2304.00
16491;DHT22;8356;51.214;3.270;2023-01-13T14:23:58;308.00;2304.00
16491;DHT22;8356;51.214;3.270;2023-01-13T14:26:27;307.90;2304.00
16491;DHT22;8356;51.214;3.270;2023-01-13T14:28:54;307.90;2304.00
16491;DHT22;8356;51.214;3.270;2023-01-13T14:31:21;307.90;2304.00
16491;DHT22;8356;51.214;3.270;2023-01-13T14:33:53;307.90;2304.00
16491;DHT22;8356;51.214;3.270;2023-01-13T14:41:36;307.90;2304.00
16491;DHT22;8356;51.214;3.270;2023-01-13T14:44:52;307.90;2304.00
16491;DHT22;8356;51.214;3.270;2023-01-13T14:46:54;307.80;2304.00
16491;DHT22;8356;51.214;3.270;2023-01-13T14:51:50;307.90;2304.00
16491;DHT22;8356;51.214;3.270;2023-01-13T14:58:15;307.90;2304.00
16491;DHT22;8356;51.214;3.270;2023-01-13T15:00:38;307.90;2304.00
16491;DHT22;8356;51.214;3.270;2023-01-13T15:03:05;308.00;2304.00
16491;DHT22;8356;51.214;3.270;2023-01-13T15:05:37;308.00;2304.00
16491;DHT22;8356;51.214;3.270;2023-01-13T15:10:48;307.90;2304.00
16491;DHT22;8356;51.214;3.270;2023-01-13T15:13:24;307.90;2304.00
16491;DHT22;8356;51.214;3.270;2023-01-13T15:15:53;307.90;2304.00
16491;DHT22;8356;51.214;3.270;2023-01-13T15:18:19;307.90;2304.00
16491;DHT22;8356;51.214;3.270;2023-01-13T15:20:45;308.00;2304.00
16491;DHT22;8356;51.214;3.270;2023-01-13T15:23:11;308.00;2304.00
16491;DHT22;8356;51.214;3.270;2023-01-13T15:25:39;308.00;2304.00
16491;DHT22;8356;51.214;3.270;2023-01-13T15:28:06;308.00;2304.00
16491;DHT22;8356;51.214;3.270;2023-01-13T15:30:32;308.00;2304.00
16491;DHT22;8356;51.214;3.270;2023-01-13T15:32:58;307.90;2304.00
16491;DHT22;8356;51.214;3.270;2023-01-13T15:35:27;307.90;2304.00
16491;DHT22;8356;51.214;3.270;2023-01-13T15:37:56;307.90;2304.00
16491;DHT22;8356;51.214;3.270;2023-01-13T15:40:27;307.90;2304.00
16491;DHT22;8356;51.214;3.270;2023-01-13T15:42:54;307.90;2304.00
16491;DHT22;8356;51.214;3.270;2023-01-13T15:45:43;307.90;2304.00
16491;DHT22;8356;51.214;3.270;2023-01-13T15:48:29;307.80;2304.00
16491;DHT22;8356;51.214;3.270;2023-01-13T15:50:57;307.70;2304.00
16491;DHT22;8356;51.214;3.270;2023-01-13T15:53:23;307.70;2304.00
16491;DHT22;8356;51.214;3.270;2023-01-13T15:55:55;307.60;2304.00
16491;DHT22;8356;51.214;3.270;2023-01-13T15:58:24;307.60;2304.00
16491;DHT22;8356;51.214;3.270;2023-01-13T16:00:51;307.60;2304.00
16491;DHT22;8356;51.214;3.270;2023-01-13T16:03:16;307.60;2304.00
16491;DHT22;8356;51.214;3.270;2023-01-13T16:05:43;307.50;2304.00
16491;DHT22;8356;51.214;3.270;2023-01-13T16:08:19;332.90;2329.60
16491;DHT22;8356;51.214;3.270;2023-01-13T16:10:46;307.50;2304.00
16491;DHT22;8356;51.214;3.270;2023-01-13T16:13:12;307.50;2304.00
16491;DHT22;8356;51.214;3.270;2023-01-13T16:15:42;307.50;2304.00
16491;DHT22;8356;51.214;3.270;2023-01-13T16:18:15;307.40;2304.00
16491;DHT22;8356;51.214;3.270;2023-01-13T16:20:41;307.40;2304.00
16491;DHT22;8356;51.214;3.270;2023-01-13T16:23:08;307.40;2304.00
16491;DHT22;8356;51.214;3.270;2023-01-13T16:25:34;307.40;2304.00
16491;DHT22;8356;51.214;3.270;2023-01-13T16:27:59;307.40;2304.00
16491;DHT22;8356;51.214;3.270;2023-01-13T16:30:30;307.40;2304.00
16491;DHT22;8356;51.214;3.270;2023-01-13T16:32:56;307.40;2304.00
16491;DHT22;8356;51.214;3.270;2023-01-13T16:35:23;307.40;2304.00
16491;DHT22;8356;51.214;3.270;2023-01-13T16:37:49;307.40;2304.00
16491;DHT22;8356;51.214;3.270;2023-01-13T16:40:24;307.40;2304.00
16491;DHT22;8356;51.214;3.270;2023-01-13T16:42:51;307.40;2304.00
16491;DHT22;8356;51.214;3.270;2023-01-13T16:45:17;307.40;2304.00
16491;DHT22;8356;51.214;3.270;2023-01-13T16:47:43;307.40;2304.00
16491;DHT22;8356;51.214;3.270;2023-01-13T16:50:36;307.40;2304.00
16491;DHT22;8356;51.214;3.270;2023-01-13T16:53:04;307.40;2304.00
16491;DHT22;8356;51.214;3.270;2023-01-13T16:55:30;307.40;2304.00
16491;DHT22;8356;51.214;3.270;2023-01-13T16:57:56;307.30;2304.00
16491;DHT22;8356;51.214;3.270;2023-01-13T17:00:22;307.40;2304.00
16491;DHT22;8356;51.214;3.270;2023-01-13T17:02:48;307.30;2304.00
16491;DHT22;8356;51.214;3.270;2023-01-13T17:05:14;307.30;2304.00
16491;DHT22;8356;51.214;3.270;2023-01-13T17:07:41;307.30;2304.00
16491;DHT22;8356;51.214;3.270;2023-01-13T17:10:12;307.30;2304.00
16491;DHT22;8356;51.214;3.270;2023-01-13T17:12:38;307.30;2304.00
16491;DHT22;8356;51.214;3.270;2023-01-13T17:15:04;307.40;2304.00
16491;DHT22;8356;51.214;3.270;2023-01-13T17:17:30;307.40;2304.00
16491;DHT22;8356;51.214;3.270;2023-01-13T17:19:55;307.40;2304.00
16491;DHT22;8356;51.214;3.270;2023-01-13T17:22:21;307.40;2304.00
16491;DHT22;8356;51.214;3.270;2023-01-13T17:24:47;307.40;2304.00
16491;DHT22;8356;51.214;3.270;2023-01-13T17:27:13;307.40;2304.00
16491;DHT22;8356;51.214;3.270;2023-01-13T17:29:41;307.40;2304.00
16491;DHT22;8356;51.214;3.270;2023-01-13T17:32:14;307.30;2304.00
16491;DHT22;8356;51.214;3.270;2023-01-13T17:34:40;307.40;2304.00
16491;DHT22;8356;51.214;3.270;2023-01-13T17:37:06;307.40;2304.00
16491;DHT22;8356;51.214;3.270;2023-01-13T17:39:32;307.40;2304.00
16491;DHT22;8356;51.214;3.270;2023-01-13T17:41:58;307.40;2304.00
16491;DHT22;8356;51.214;3.270;2023-01-13T17:44:23;307.40;2304.00
16491;DHT22;8356;51.214;3.270;2023-01-13T17:46:49;307.40;2304.00
16491;DHT22;8356;51.214;3.270;2023-01-13T17:49:17;307.40;2304.00
16491;DHT22;8356;51.214;3.270;2023-01-13T17:51:43;307.40;2304.00
16491;DHT22;8356;51.214;3.270;2023-01-13T17:54:12;307.40;2304.00